Wetterdaten: Donnerstag, 09.04.2015
Datum Zeit Temp. A. Feuchte A. Luftdruck Regen Wind Richtung Richtung Sonnenschein ET UV Solar Taupunkt Windchill Windben Empfang
09.04.2015 00:00 6,8 C 68 % 1032,0 hPa 0,0 l/m 0,0 km/h (0 Bft) S-SW 201 0 min 0,000 mm 0,0 UV-I 0 W/m 1,3 C 6,8 C 0,0 km/h (0 Bft) 0,00 %
09.04.2015 00:15 6,8 C 68 % 1032,0 hPa 0,0 l/m 0,0 km/h (0 Bft) S-SW 200 0 min 0,000 mm 0,0 UV-I 0 W/m 1,3 C 6,8 C 0,0 km/h (0 Bft) 0,00 %
09.04.2015 00:30 6,8 C 69 % 1032,0 hPa 0,0 l/m 0,0 km/h (0 Bft) S-SW 200 0 min 0,000 mm 0,0 UV-I 0 W/m 1,5 C 6,8 C 0,0 km/h (0 Bft) 0,00 %
09.04.2015 00:45 6,7 C 69 % 1031,9 hPa 0,0 l/m 0,0 km/h (0 Bft) S 188 0 min 0,000 mm 0,0 UV-I 0 W/m 1,4 C 6,7 C 0,0 km/h (0 Bft) 0,00 %
09.04.2015 01:00 6,5 C 70 % 1031,8 hPa 0,0 l/m 0,0 km/h (0 Bft) S-SW 200 0 min 0,000 mm 0,0 UV-I 0 W/m 1,4 C 6,5 C 0,0 km/h (0 Bft) 0,00 %
09.04.2015 01:15 6,4 C 69 % 1032,0 hPa 0,0 l/m 0,0 km/h (0 Bft) S 172 0 min 0,000 mm 0,0 UV-I 0 W/m 1,1 C 6,4 C 0,0 km/h (0 Bft) 0,00 %
09.04.2015 01:30 6,4 C 70 % 1032,2 hPa 0,0 l/m 0,0 km/h (0 Bft) S 182 0 min 0,000 mm 0,0 UV-I 0 W/m 1,3 C 6,4 C 0,0 km/h (0 Bft) 0,00 %
09.04.2015 01:45 6,2 C 70 % 1031,9 hPa 0,0 l/m 0,0 km/h (0 Bft) S-SW 198 0 min 0,000 mm 0,0 UV-I 0 W/m 1,1 C 6,2 C 0,0 km/h (0 Bft) 0,00 %
09.04.2015 02:00 6,0 C 69 % 1031,7 hPa 0,0 l/m 0,0 km/h (0 Bft) S-SW 213 0 min 0,000 mm 0,0 UV-I 0 W/m 0,8 C 6,0 C 0,0 km/h (0 Bft) 0,00 %
09.04.2015 02:15 5,9 C 69 % 1031,7 hPa 0,0 l/m 0,0 km/h (0 Bft) S-SW 195 0 min 0,000 mm 0,0 UV-I 0 W/m 0,7 C 5,9 C 0,0 km/h (0 Bft) 0,00 %
09.04.2015 02:30 5,9 C 69 % 1031,9 hPa 0,0 l/m 0,0 km/h (0 Bft) S-SW 200 0 min 0,000 mm 0,0 UV-I 0 W/m 0,7 C 5,9 C 0,0 km/h (0 Bft) 0,00 %
09.04.2015 02:45 5,9 C 69 % 1031,7 hPa 0,0 l/m 0,0 km/h (0 Bft) S-SW 203 0 min 0,000 mm 0,0 UV-I 0 W/m 0,7 C 5,9 C 0,0 km/h (0 Bft) 0,00 %
09.04.2015 03:00 5,9 C 69 % 1031,6 hPa 0,0 l/m 0,0 km/h (0 Bft) S-SW 210 0 min 0,000 mm 0,0 UV-I 0 W/m 0,7 C 5,9 C 0,0 km/h (0 Bft) 0,00 %
09.04.2015 03:15 5,8 C 70 % 1031,7 hPa 0,0 l/m 0,0 km/h (0 Bft) S 185 0 min 0,000 mm 0,0 UV-I 0 W/m 0,8 C 5,8 C 0,0 km/h (0 Bft) 0,00 %
09.04.2015 03:30 5,8 C 71 % 1031,7 hPa 0,0 l/m 0,0 km/h (0 Bft) S 174 0 min 0,000 mm 0,0 UV-I 0 W/m 1,0 C 5,8 C 0,0 km/h (0 Bft) 0,00 %
09.04.2015 03:45 5,7 C 71 % 1031,6 hPa 0,0 l/m 0,0 km/h (0 Bft) S-SW 194 0 min 0,000 mm 0,0 UV-I 0 W/m 0,9 C 5,7 C 0,0 km/h (0 Bft) 0,00 %
09.04.2015 04:00 5,6 C 72 % 1031,9 hPa 0,0 l/m 0,0 km/h (0 Bft) S 181 0 min 0,000 mm 0,0 UV-I 0 W/m 1,0 C 5,6 C 0,0 km/h (0 Bft) 0,00 %
09.04.2015 04:15 5,5 C 71 % 1031,9 hPa 0,0 l/m 0,0 km/h (0 Bft) S-SO 150 0 min 0,000 mm 0,0 UV-I 0 W/m 0,7 C 5,5 C 0,0 km/h (0 Bft) 0,00 %
09.04.2015 04:30 5,6 C 70 % 1031,9 hPa 0,0 l/m 0,0 km/h (0 Bft) S 175 0 min 0,000 mm 0,0 UV-I 0 W/m 0,6 C 5,6 C 0,0 km/h (0 Bft) 0,00 %
09.04.2015 04:45 5,6 C 72 % 1031,8 hPa 0,0 l/m 0,0 km/h (0 Bft) S 179 0 min 0,000 mm 0,0 UV-I 0 W/m 1,0 C 5,6 C 0,0 km/h (0 Bft) 0,00 %
09.04.2015 05:00 5,5 C 72 % 1031,7 hPa 0,0 l/m 0,0 km/h (0 Bft) SO 134 0 min 0,000 mm 0,0 UV-I 0 W/m 0,9 C 5,5 C 0,0 km/h (0 Bft) 0,00 %
09.04.2015 05:15 5,7 C 71 % 1031,8 hPa 0,0 l/m 0,0 km/h (0 Bft) S 173 0 min 0,000 mm 0,0 UV-I 0 W/m 0,9 C 5,7 C 0,0 km/h (0 Bft) 0,00 %
09.04.2015 05:30 5,8 C 71 % 1031,8 hPa 0,0 l/m 0,0 km/h (0 Bft) S 171 0 min 0,000 mm 0,0 UV-I 0 W/m 1,0 C 5,8 C 0,0 km/h (0 Bft) 0,00 %
09.04.2015 05:45 5,8 C 73 % 1031,8 hPa 0,0 l/m 1,4 km/h (1 Bft) SO 138 0 min 0,000 mm 0,0 UV-I 0 W/m 1,3 C 5,8 C 4,0 km/h (1 Bft) 0,00 %
09.04.2015 06:00 5,8 C 73 % 1031,8 hPa 0,0 l/m 1,4 km/h (1 Bft) O-SO 106 0 min 0,000 mm 0,0 UV-I 0 W/m 1,3 C 5,8 C 4,0 km/h (1 Bft) 0,00 %
09.04.2015 06:15 5,7 C 74 % 1031,7 hPa 0,0 l/m 0,7 km/h (0 Bft) O-SO 111 0 min 0,000 mm 0,0 UV-I 0 W/m 1,4 C 5,7 C 4,0 km/h (1 Bft) 0,00 %
09.04.2015 06:30 5,7 C 74 % 1031,8 hPa 0,0 l/m 0,0 km/h (0 Bft) S 177 0 min 0,000 mm 0,0 UV-I 0 W/m 1,4 C 5,7 C 0,0 km/h (0 Bft) 0,00 %
09.04.2015 06:45 5,6 C 74 % 1031,9 hPa 0,0 l/m 0,4 km/h (0 Bft) O-SO 109 0 min 0,000 mm 0,0 UV-I 11 W/m 1,3 C 5,6 C 4,0 km/h (1 Bft) 0,00 %
09.04.2015 07:00 5,4 C 76 % 1031,8 hPa 0,0 l/m 0,0 km/h (0 Bft) O-SO 123 0 min 0,000 mm 0,0 UV-I 42 W/m 1,5 C 5,4 C 0,0 km/h (0 Bft) 0,00 %
09.04.2015 07:15 5,6 C 74 % 1032,0 hPa 0,0 l/m 2,2 km/h (1 Bft) O 94 15 min 0,000 mm 1,0 UV-I 78 W/m 1,3 C 5,6 C 4,0 km/h (1 Bft) 0,00 %
09.04.2015 07:30 6,2 C 71 % 1031,5 hPa 0,0 l/m 10,4 km/h (2 Bft) O-SO 115 15 min 0,000 mm 1,0 UV-I 104 W/m 1,3 C 3,1 C 11,9 km/h (2 Bft) 0,00 %
09.04.2015 07:45 6,8 C 68 % 1031,6 hPa 0,0 l/m 0,0 km/h (0 Bft) S 174 15 min 0,000 mm 1,0 UV-I 121 W/m 1,3 C 6,8 C 0,0 km/h (0 Bft) 0,00 %
09.04.2015 08:00 7,1 C 68 % 1031,2 hPa 0,0 l/m 0,7 km/h (0 Bft) NO 56 0 min 0,000 mm 1,0 UV-I 134 W/m 1,6 C 7,1 C 4,0 km/h (1 Bft) 0,00 %
09.04.2015 08:15 7,5 C 65 % 1031,2 hPa 0,0 l/m 12,2 km/h (2 Bft) O-SO 118 0 min 0,000 mm 1,0 UV-I 150 W/m 1,4 C 3,5 C 15,8 km/h (3 Bft) 0,00 %
09.04.2015 08:30 8,0 C 64 % 1031,1 hPa 0,0 l/m 9,0 km/h (2 Bft) O 83 0 min 0,000 mm 1,0 UV-I 165 W/m 1,6 C 6,0 C 11,9 km/h (2 Bft) 0,00 %
09.04.2015 08:45 8,5 C 63 % 1030,9 hPa 0,0 l/m 9,4 km/h (2 Bft) O-SO 111 0 min 0,000 mm 2,0 UV-I 186 W/m 1,9 C 6,3 C 15,8 km/h (3 Bft) 0,00 %
09.04.2015 09:00 8,8 C 61 % 1030,8 hPa 0,0 l/m 11,9 km/h (2 Bft) O 97 0 min 0,000 mm 2,0 UV-I 197 W/m 1,7 C 5,2 C 15,8 km/h (3 Bft) 0,00 %
09.04.2015 09:15 8,8 C 63 % 1030,5 hPa 0,0 l/m 13,0 km/h (3 Bft) O 83 0 min 0,000 mm 2,0 UV-I 216 W/m 2,2 C 4,6 C 19,8 km/h (3 Bft) 0,00 %
09.04.2015 09:30 8,7 C 62 % 1030,4 hPa 0,0 l/m 17,3 km/h (3 Bft) O-SO 115 0 min 0,000 mm 2,0 UV-I 177 W/m 1,8 C 2,6 C 19,8 km/h (3 Bft) 0,00 %
09.04.2015 09:45 8,7 C 62 % 1030,4 hPa 0,0 l/m 8,3 km/h (2 Bft) N-NW 344 0 min 0,000 mm 2,0 UV-I 158 W/m 1,8 C 7,3 C 11,9 km/h (2 Bft) 0,00 %
09.04.2015 10:00 8,9 C 62 % 1030,2 hPa 0,0 l/m 2,9 km/h (1 Bft) SO 137 0 min 0,000 mm 3,0 UV-I 270 W/m 2,0 C 8,9 C 7,9 km/h (2 Bft) 0,00 %
09.04.2015 10:15 9,8 C 60 % 1029,8 hPa 0,0 l/m 4,3 km/h (1 Bft) S-SW 194 0 min 0,000 mm 3,0 UV-I 301 W/m 2,4 C 9,8 C 11,9 km/h (2 Bft) 0,00 %
09.04.2015 10:30 9,7 C 61 % 1029,9 hPa 0,0 l/m 5,8 km/h (2 Bft) S-SW 209 0 min 0,000 mm 3,0 UV-I 322 W/m 2,5 C 9,7 C 7,9 km/h (2 Bft) 0,00 %
09.04.2015 10:45 10,0 C 60 % 1029,8 hPa 0,0 l/m 15,8 km/h (3 Bft) O-SO 108 15 min 0,000 mm 4,0 UV-I 356 W/m 2,6 C 4,8 C 19,8 km/h (3 Bft) 0,00 %
09.04.2015 11:00 10,1 C 60 % 1029,7 hPa 0,0 l/m 13,3 km/h (3 Bft) O-SO 114 15 min 0,000 mm 4,0 UV-I 371 W/m 2,7 C 6,0 C 15,8 km/h (3 Bft) 0,00 %
09.04.2015 11:15 10,5 C 59 % 1029,6 hPa 0,0 l/m 15,5 km/h (3 Bft) SO 124 15 min 0,000 mm 4,0 UV-I 413 W/m 2,8 C 5,5 C 19,8 km/h (3 Bft) 0,00 %
09.04.2015 11:30 11,0 C 56 % 1029,3 hPa 0,0 l/m 7,2 km/h (2 Bft) SO 140 15 min 0,000 mm 4,0 UV-I 451 W/m 2,6 C 10,4 C 11,9 km/h (2 Bft) 0,00 %
09.04.2015 11:45 11,0 C 55 % 1029,0 hPa 0,0 l/m 9,0 km/h (2 Bft) O 90 15 min 0,000 mm 4,0 UV-I 480 W/m 2,3 C 9,3 C 11,9 km/h (2 Bft) 0,00 %
09.04.2015 12:00 11,2 C 57 % 1029,1 hPa 0,0 l/m 14,8 km/h (3 Bft) O 84 15 min 0,000 mm 5,0 UV-I 511 W/m 3,0 C 6,7 C 15,8 km/h (3 Bft) 0,00 %
09.04.2015 12:15 11,5 C 54 % 1028,6 hPa 0,0 l/m 13,3 km/h (3 Bft) O 101 15 min 0,000 mm 5,0 UV-I 546 W/m 2,5 C 7,7 C 15,8 km/h (3 Bft) 0,00 %
09.04.2015 12:30 11,9 C 53 % 1028,3 hPa 0,0 l/m 0,4 km/h (0 Bft) NO 36 15 min 0,000 mm 5,0 UV-I 574 W/m 2,6 C 11,9 C 4,0 km/h (1 Bft) 0,00 %
09.04.2015 12:45 12,0 C 52 % 1027,9 hPa 0,0 l/m 6,8 km/h (2 Bft) NO 56 15 min 0,000 mm 5,0 UV-I 603 W/m 2,5 C 11,7 C 7,9 km/h (2 Bft) 0,00 %
09.04.2015 13:00 12,5 C 53 % 1027,5 hPa 0,0 l/m 13,0 km/h (3 Bft) O-SO 122 15 min 0,000 mm 5,0 UV-I 618 W/m 3,2 C 9,0 C 19,8 km/h (3 Bft) 0,00 %
09.04.2015 13:15 12,7 C 52 % 1027,1 hPa 0,0 l/m 14,0 km/h (3 Bft) O 93 15 min 0,000 mm 5,0 UV-I 623 W/m 3,1 C 8,8 C 15,8 km/h (3 Bft) 0,00 %
09.04.2015 13:30 13,0 C 52 % 1026,9 hPa 0,0 l/m 14,0 km/h (3 Bft) S 177 15 min 0,000 mm 5,0 UV-I 639 W/m 3,4 C 9,1 C 15,8 km/h (3 Bft) 0,00 %
09.04.2015 13:45 13,4 C 49 % 1026,7 hPa 0,0 l/m 13,0 km/h (3 Bft) O-SO 117 15 min 0,000 mm 5,0 UV-I 654 W/m 2,9 C 10,0 C 15,8 km/h (3 Bft) 0,00 %
09.04.2015 14:00 13,6 C 49 % 1026,4 hPa 0,0 l/m 15,5 km/h (3 Bft) O 89 15 min 0,000 mm 5,0 UV-I 664 W/m 3,1 C 9,3 C 19,8 km/h (3 Bft) 0,00 %
09.04.2015 14:15 13,8 C 47 % 1026,1 hPa 0,0 l/m 9,7 km/h (2 Bft) O 85 15 min 0,000 mm 5,0 UV-I 658 W/m 2,7 C 11,9 C 15,8 km/h (3 Bft) 0,00 %
09.04.2015 14:30 14,4 C 44 % 1025,8 hPa 0,0 l/m 16,6 km/h (3 Bft) O 86 15 min 0,000 mm 2,0 UV-I 665 W/m 2,3 C 9,9 C 19,8 km/h (3 Bft) 0,00 %
09.04.2015 14:45 14,4 C 47 % 1025,7 hPa 0,0 l/m 1,8 km/h (1 Bft) O-SO 107 15 min 0,000 mm 2,0 UV-I 669 W/m 3,2 C 14,4 C 4,0 km/h (1 Bft) 0,00 %
09.04.2015 15:00 14,9 C 46 % 1025,4 hPa 0,0 l/m 15,8 km/h (3 Bft) O 97 15 min 0,000 mm 2,0 UV-I 667 W/m 3,4 C 10,8 C 19,8 km/h (3 Bft) 0,00 %
09.04.2015 15:15 14,8 C 46 % 1025,0 hPa 0,0 l/m 13,3 km/h (3 Bft) O 81 15 min 0,000 mm 2,0 UV-I 677 W/m 3,3 C 11,5 C 19,8 km/h (3 Bft) 0,00 %
09.04.2015 15:30 14,8 C 46 % 1024,8 hPa 0,0 l/m 14,8 km/h (3 Bft) O-SO 111 15 min 0,000 mm 2,0 UV-I 641 W/m 3,3 C 11,0 C 19,8 km/h (3 Bft) 0,00 %
09.04.2015 15:45 14,7 C 45 % 1024,6 hPa 0,0 l/m 5,4 km/h (1 Bft) SO 133 15 min 0,000 mm 2,0 UV-I 635 W/m 2,9 C 14,7 C 7,9 km/h (2 Bft) 0,00 %
09.04.2015 16:00 14,7 C 46 % 1024,4 hPa 0,0 l/m 11,5 km/h (2 Bft) O 84 15 min 0,000 mm 2,0 UV-I 630 W/m 3,2 C 12,1 C 15,8 km/h (3 Bft) 0,00 %
09.04.2015 16:15 14,9 C 48 % 1024,3 hPa 0,0 l/m 10,4 km/h (2 Bft) O 79 15 min 0,000 mm 2,0 UV-I 620 W/m 4,0 C 12,8 C 11,9 km/h (2 Bft) 0,00 %
09.04.2015 16:30 15,1 C 47 % 1024,1 hPa 0,0 l/m 7,9 km/h (2 Bft) SO 133 15 min 0,000 mm 2,0 UV-I 610 W/m 3,9 C 14,3 C 11,9 km/h (2 Bft) 0,00 %
09.04.2015 16:45 15,0 C 47 % 1023,9 hPa 0,0 l/m 5,4 km/h (1 Bft) SO 130 15 min 0,000 mm 2,0 UV-I 605 W/m 3,8 C 15,0 C 7,9 km/h (2 Bft) 0,00 %
09.04.2015 17:00 15,0 C 45 % 1023,8 hPa 0,0 l/m 4,0 km/h (1 Bft) S 173 15 min 0,000 mm 2,0 UV-I 600 W/m 3,2 C 15,0 C 7,9 km/h (2 Bft) 0,00 %
09.04.2015 17:15 15,2 C 45 % 1023,6 hPa 0,0 l/m 23,4 km/h (4 Bft) O 100 15 min 0,000 mm 2,0 UV-I 464 W/m 3,4 C 9,2 C 28,1 km/h (4 Bft) 0,00 %
09.04.2015 17:30 15,0 C 47 % 1023,6 hPa 0,0 l/m 11,5 km/h (2 Bft) O-SO 113 15 min 0,000 mm 1,0 UV-I 420 W/m 3,8 C 12,5 C 15,8 km/h (3 Bft) 0,00 %
09.04.2015 17:45 14,7 C 46 % 1023,5 hPa 0,0 l/m 13,3 km/h (3 Bft) SO 128 15 min 0,000 mm 1,0 UV-I 339 W/m 3,2 C 11,4 C 15,8 km/h (3 Bft) 0,00 %
09.04.2015 18:00 14,4 C 47 % 1023,6 hPa 0,0 l/m 14,8 km/h (3 Bft) O 100 15 min 0,000 mm 1,0 UV-I 279 W/m 3,2 C 10,5 C 19,8 km/h (3 Bft) 0,00 %
09.04.2015 18:15 14,2 C 47 % 1023,7 hPa 0,0 l/m 11,9 km/h (2 Bft) O-SO 116 15 min 0,000 mm 1,0 UV-I 204 W/m 3,1 C 11,4 C 15,8 km/h (3 Bft) 0,00 %
09.04.2015 18:30 14,0 C 49 % 1023,5 hPa 0,0 l/m 14,4 km/h (3 Bft) O-SO 119 15 min 0,000 mm 1,0 UV-I 176 W/m 3,5 C 10,2 C 15,8 km/h (3 Bft) 0,00 %
09.04.2015 18:45 13,6 C 51 % 1023,6 hPa 0,0 l/m 2,2 km/h (1 Bft) SO 140 15 min 0,000 mm 1,0 UV-I 129 W/m 3,7 C 13,6 C 4,0 km/h (1 Bft) 0,00 %
09.04.2015 19:00 13,3 C 51 % 1023,3 hPa 0,0 l/m 5,8 km/h (2 Bft) S-SO 166 15 min 0,000 mm 0,0 UV-I 182 W/m 3,4 C 13,3 C 7,9 km/h (2 Bft) 0,00 %
09.04.2015 19:15 13,1 C 52 % 1023,6 hPa 0,0 l/m 4,3 km/h (1 Bft) SO 136 15 min 0,000 mm 0,0 UV-I 89 W/m 3,5 C 13,1 C 7,9 km/h (2 Bft) 0,00 %
09.04.2015 19:30 12,6 C 51 % 1023,8 hPa 0,0 l/m 9,4 km/h (2 Bft) O 85 15 min 0,000 mm 0,0 UV-I 32 W/m 2,7 C 10,8 C 11,9 km/h (2 Bft) 0,00 %
09.04.2015 19:45 12,1 C 51 % 1024,2 hPa 0,0 l/m 1,4 km/h (1 Bft) S 183 0 min 0,000 mm 0,0 UV-I 5 W/m 2,3 C 12,1 C 4,0 km/h (1 Bft) 0,00 %
09.04.2015 20:00 11,7 C 51 % 1024,1 hPa 0,0 l/m 3,2 km/h (1 Bft) S 184 0 min 0,000 mm 0,0 UV-I 0 W/m 1,9 C 11,7 C 11,9 km/h (2 Bft) 0,00 %
09.04.2015 20:15 11,3 C 53 % 1024,0 hPa 0,0 l/m 1,8 km/h (1 Bft) O-SO 107 0 min 0,000 mm 0,0 UV-I 0 W/m 2,1 C 11,3 C 4,0 km/h (1 Bft) 0,00 %
09.04.2015 20:30 11,0 C 52 % 1024,2 hPa 0,0 l/m 2,2 km/h (1 Bft) S-SO 152 0 min 0,000 mm 0,0 UV-I 0 W/m 1,5 C 11,0 C 7,9 km/h (2 Bft) 0,00 %
09.04.2015 20:45 10,6 C 54 % 1024,5 hPa 0,0 l/m 0,0 km/h (0 Bft) SO 136 0 min 0,000 mm 0,0 UV-I 0 W/m 1,7 C 10,6 C 0,0 km/h (0 Bft) 0,00 %
09.04.2015 21:00 10,5 C 53 % 1024,6 hPa 0,0 l/m 3,2 km/h (1 Bft) O-SO 109 0 min 0,000 mm 0,0 UV-I 0 W/m 1,3 C 10,5 C 7,9 km/h (2 Bft) 0,00 %
09.04.2015 21:15 10,3 C 55 % 1024,6 hPa 0,0 l/m 0,0 km/h (0 Bft) S-SO 160 0 min 0,000 mm 0,0 UV-I 0 W/m 1,7 C 10,3 C 0,0 km/h (0 Bft) 0,00 %
09.04.2015 21:30 9,9 C 55 % 1024,8 hPa 0,0 l/m 4,3 km/h (1 Bft) O-SO 104 0 min 0,000 mm 0,0 UV-I 0 W/m 1,3 C 9,9 C 7,9 km/h (2 Bft) 0,00 %
09.04.2015 21:45 9,9 C 56 % 1024,8 hPa 0,0 l/m 0,0 km/h (0 Bft) SO 127 0 min 0,000 mm 0,0 UV-I 0 W/m 1,5 C 9,9 C 0,0 km/h (0 Bft) 0,00 %
09.04.2015 22:00 9,6 C 56 % 1024,8 hPa 0,0 l/m 6,5 km/h (2 Bft) SO 130 0 min 0,000 mm 0,0 UV-I 0 W/m 1,3 C 9,6 C 7,9 km/h (2 Bft) 0,00 %
09.04.2015 22:15 9,3 C 60 % 1024,7 hPa 0,0 l/m 1,8 km/h (1 Bft) O-SO 114 0 min 0,000 mm 0,0 UV-I 0 W/m 1,9 C 9,3 C 4,0 km/h (1 Bft) 0,00 %
09.04.2015 22:30 8,7 C 60 % 1025,0 hPa 0,0 l/m 0,0 km/h (0 Bft) S 172 0 min 0,000 mm 0,0 UV-I 0 W/m 1,4 C 8,7 C 0,0 km/h (0 Bft) 0,00 %
09.04.2015 22:45 8,7 C 60 % 1024,8 hPa 0,0 l/m 0,0 km/h (0 Bft) SO 124 0 min 0,000 mm 0,0 UV-I 0 W/m 1,4 C 8,7 C 0,0 km/h (0 Bft) 0,00 %
09.04.2015 23:00 8,5 C 62 % 1024,8 hPa 0,0 l/m 0,0 km/h (0 Bft) SO 145 0 min 0,000 mm 0,0 UV-I 0 W/m 1,6 C 8,5 C 0,0 km/h (0 Bft) 0,00 %
09.04.2015 23:15 8,0 C 63 % 1024,8 hPa 0,0 l/m 0,0 km/h (0 Bft) SO 144 0 min 0,000 mm 0,0 UV-I 0 W/m 1,4 C 8,0 C 0,0 km/h (0 Bft) 0,00 %
09.04.2015 23:30 7,9 C 62 % 1025,2 hPa 0,0 l/m 3,2 km/h (1 Bft) S-SO 147 0 min 0,000 mm 0,0 UV-I 0 W/m 1,1 C 7,9 C 4,0 km/h (1 Bft) 0,00 %
09.04.2015 23:45 7,6 C 63 % 1024,9 hPa 0,0 l/m 0,0 km/h (0 Bft) S-SW 192 0 min 0,000 mm 0,0 UV-I 0 W/m 1,0 C 7,6 C 0,0 km/h (0 Bft) 0,00 %
_ Min-Zeit 07:00 14:30 19:00 - 00:00 - - - - - - 04:30 09:30 00:00 00:00
Minimum _ 5,4 C 44 % 1023,3 hPa - 0,0 km/h (0 Bft) - - - - - - 0,6 C 2,6 C 0,0 km/h (0 Bft) 0,00 %
_ Max-Zeit 17:15 07:00 01:30 00:00 17:15 - - 07:15 00:00 12:00 15:15 16:15 16:45 17:15 00:00
Maximum _ 15,2 C 76 % 1032,2 hPa 0,0 l/m 23,4 km/h
O (4 Bft)
- - 15 min 0,000 mm 5,0 UV-I 677 W/m 4,0 C 15,0 C 28,1 km/h
O (4 Bft)
0,00 %
Durchschnitt _ 9,7 C 60 % 1028,1 hPa #0,0 l/m 5,6 km/h (1 Bft) O - #9:45 h #0,000 mm 2,7 UV-I 380 W/m 2,0 C 8,5 C 7,9 km/h (2 Bft) 0,00 %